DLH8NB EDDM-EDDL
Flight info
| Callsign | DLH8NB |
|---|---|
| Flight time | 0h 51m |
| Altitude | 32000 |
| Route | GIVMI6Q/08L GIVMI Y101 INBED DCT REKDI DCT LOHRE Z850 ARPEG/N0371F240 Z850 ADEMI T854 DOMUX DOMUX1A |
| Aircraft | A320/M-SDE3FGHIRWY/LB1 |
Departure
| Time | 2026-05-04 17:57 |
|---|---|
| Airport | Munich Airport (EDDM) |
Arrival
| Time | 2026-05-04 18:48 |
|---|---|
| Airport | Düsseldorf Airport (EDDL) |
| Time | Latitude | Longitude | Altitude | Speed | Heading |
|---|---|---|---|---|---|
| 2026-05-04 17:12 | 48.35713 | 11.79267 | 1486 ft | 0 kts | 263° |
| 2026-05-04 17:36 | 48.35714 | 11.79282 | 1485 ft | 4 kts | 263° |
| 2026-05-04 17:36 | 48.35717 | 11.79322 | 1472 ft | 4 kts | 263° |
| 2026-05-04 17:36 | 48.35719 | 11.79354 | 1481 ft | 4 kts | 267° |
| 2026-05-04 17:36 | 48.35717 | 11.79392 | 1473 ft | 4 kts | 301° |
| 2026-05-04 17:37 | 48.35700 | 11.79411 | 1480 ft | 3 kts | 353° |
| 2026-05-04 17:37 | 48.35683 | 11.79414 | 1476 ft | 0 kts | 353° |
| 2026-05-04 17:42 | 48.35700 | 11.79411 | 1483 ft | 6 kts | 353° |
| 2026-05-04 17:42 | 48.35769 | 11.79399 | 1483 ft | 13 kts | 353° |
| 2026-05-04 17:42 | 48.35861 | 11.79383 | 1483 ft | 13 kts | 353° |
| 2026-05-04 17:42 | 48.35947 | 11.79343 | 1485 ft | 13 kts | 345° |
| 2026-05-04 17:43 | 48.36032 | 11.79326 | 1474 ft | 12 kts | 353° |
| 2026-05-04 17:43 | 48.36112 | 11.79311 | 1481 ft | 11 kts | 353° |
| 2026-05-04 17:43 | 48.36188 | 11.79312 | 1479 ft | 12 kts | 28° |
| 2026-05-04 17:43 | 48.36214 | 11.79452 | 1480 ft | 17 kts | 83° |
| 2026-05-04 17:44 | 48.36229 | 11.79644 | 1485 ft | 21 kts | 84° |
| 2026-05-04 17:44 | 48.36246 | 11.79883 | 1485 ft | 25 kts | 84° |
| 2026-05-04 17:44 | 48.36267 | 11.80161 | 1475 ft | 28 kts | 83° |
| 2026-05-04 17:44 | 48.36291 | 11.80465 | 1479 ft | 29 kts | 83° |
| 2026-05-04 17:45 | 48.36315 | 11.80767 | 1478 ft | 30 kts | 83° |
| 2026-05-04 17:45 | 48.36339 | 11.81076 | 1473 ft | 30 kts | 83° |
| 2026-05-04 17:45 | 48.36363 | 11.81388 | 1485 ft | 30 kts | 83° |
| 2026-05-04 17:45 | 48.36386 | 11.81703 | 1475 ft | 30 kts | 84° |
| 2026-05-04 17:46 | 48.36399 | 11.81958 | 1482 ft | 16 kts | 81° |
| 2026-05-04 17:46 | 48.36490 | 11.81996 | 1485 ft | 14 kts | 353° |
| 2026-05-04 17:46 | 48.36545 | 11.81986 | 1478 ft | 5 kts | 353° |
| 2026-05-04 17:46 | 48.36561 | 11.81983 | 1485 ft | 0 kts | 353° |
| 2026-05-04 17:53 | 48.36603 | 11.81976 | 1481 ft | 12 kts | 353° |
| 2026-05-04 17:53 | 48.36673 | 11.81917 | 1480 ft | 13 kts | 270° |
| 2026-05-04 17:54 | 48.36672 | 11.81895 | 1479 ft | 0 kts | 264° |
| 2026-05-04 17:55 | 48.36671 | 11.81881 | 1485 ft | 8 kts | 264° |
| 2026-05-04 17:56 | 48.36639 | 11.81470 | 1475 ft | 76 kts | 263° |
| 2026-05-04 17:56 | 48.36551 | 11.80360 | 1481 ft | 135 kts | 264° |
| 2026-05-04 17:56 | 48.36429 | 11.78709 | 1487 ft | 180 kts | 264° |
| 2026-05-04 17:56 | 48.36284 | 11.76758 | 1927 ft | 194 kts | 264° |
| 2026-05-04 17:57 | 48.36135 | 11.74696 | 2525 ft | 202 kts | 264° |
| 2026-05-04 17:57 | 48.35985 | 11.72564 | 3158 ft | 206 kts | 264° |
| 2026-05-04 17:57 | 48.35833 | 11.70395 | 3748 ft | 211 kts | 265° |
| 2026-05-04 17:57 | 48.35773 | 11.68188 | 4226 ft | 219 kts | 281° |
| 2026-05-04 17:58 | 48.36409 | 11.66032 | 4622 ft | 236 kts | 304° |
| 2026-05-04 17:58 | 48.37339 | 11.63901 | 5152 ft | 250 kts | 303° |
| 2026-05-04 17:58 | 48.38314 | 11.61620 | 5681 ft | 267 kts | 303° |
| 2026-05-04 17:58 | 48.39336 | 11.59197 | 6328 ft | 280 kts | 303° |
| 2026-05-04 17:59 | 48.40381 | 11.56658 | 6839 ft | 290 kts | 302° |
| 2026-05-04 17:59 | 48.41420 | 11.54071 | 6930 ft | 286 kts | 301° |
| 2026-05-04 17:59 | 48.43461 | 11.48957 | 6943 ft | 285 kts | 302° |
| 2026-05-04 18:00 | 48.44529 | 11.46436 | 6944 ft | 284 kts | 308° |
| 2026-05-04 18:00 | 48.45902 | 11.44376 | 6958 ft | 284 kts | 324° |
| 2026-05-04 18:00 | 48.47654 | 11.42925 | 7640 ft | 287 kts | 340° |
| 2026-05-04 18:00 | 48.49582 | 11.42152 | 8527 ft | 289 kts | 350° |
| 2026-05-04 18:01 | 48.51568 | 11.41602 | 9352 ft | 292 kts | 350° |
| 2026-05-04 18:01 | 48.53586 | 11.41045 | 10133 ft | 297 kts | 350° |
| 2026-05-04 18:01 | 48.55669 | 11.40470 | 10477 ft | 318 kts | 350° |
| 2026-05-04 18:02 | 48.60261 | 11.39204 | 11491 ft | 344 kts | 349° |
| 2026-05-04 18:02 | 48.62646 | 11.38546 | 12209 ft | 349 kts | 349° |
| 2026-05-04 18:02 | 48.65044 | 11.37887 | 12922 ft | 353 kts | 348° |
| 2026-05-04 18:02 | 48.67471 | 11.37217 | 13637 ft | 356 kts | 348° |
| 2026-05-04 18:03 | 48.69840 | 11.36226 | 14306 ft | 358 kts | 337° |
| 2026-05-04 18:03 | 48.72060 | 11.34530 | 14964 ft | 359 kts | 326° |
| 2026-05-04 18:03 | 48.74145 | 11.32415 | 15624 ft | 361 kts | 324° |
| 2026-05-04 18:03 | 48.76243 | 11.30284 | 16260 ft | 364 kts | 324° |
| 2026-05-04 18:04 | 48.78360 | 11.28136 | 16891 ft | 367 kts | 324° |
| 2026-05-04 18:04 | 48.80495 | 11.25970 | 17490 ft | 370 kts | 325° |
| 2026-05-04 18:04 | 48.84906 | 11.21826 | 18654 ft | 377 kts | 334° |
| 2026-05-04 18:05 | 48.87384 | 11.20444 | 19210 ft | 381 kts | 340° |
| 2026-05-04 18:05 | 48.89890 | 11.19188 | 19739 ft | 384 kts | 340° |
| 2026-05-04 18:05 | 48.92462 | 11.17894 | 20274 ft | 387 kts | 340° |
| 2026-05-04 18:05 | 48.94996 | 11.16610 | 20785 ft | 390 kts | 340° |
| 2026-05-04 18:06 | 49.00194 | 11.13966 | 21778 ft | 395 kts | 340° |
| 2026-05-04 18:06 | 49.02816 | 11.12623 | 22254 ft | 398 kts | 340° |
| 2026-05-04 18:06 | 49.05446 | 11.11280 | 22722 ft | 401 kts | 340° |
| 2026-05-04 18:07 | 49.08078 | 11.09940 | 23165 ft | 404 kts | 340° |
| 2026-05-04 18:07 | 49.10760 | 11.08574 | 23614 ft | 406 kts | 340° |
| 2026-05-04 18:07 | 49.13445 | 11.07204 | 24044 ft | 409 kts | 340° |
| 2026-05-04 18:07 | 49.16172 | 11.05810 | 24468 ft | 411 kts | 340° |
| 2026-05-04 18:08 | 49.18899 | 11.04416 | 24880 ft | 414 kts | 340° |
| 2026-05-04 18:08 | 49.21611 | 11.03026 | 25286 ft | 416 kts | 340° |
| 2026-05-04 18:08 | 49.24401 | 11.01589 | 25674 ft | 418 kts | 340° |
| 2026-05-04 18:08 | 49.27133 | 11.00179 | 26051 ft | 420 kts | 340° |
| 2026-05-04 18:09 | 49.32067 | 10.95537 | 26755 ft | 419 kts | 310° |
| 2026-05-04 18:09 | 49.35737 | 10.88608 | 27436 ft | 423 kts | 307° |
| 2026-05-04 18:10 | 49.37581 | 10.85053 | 27800 ft | 425 kts | 307° |
| 2026-05-04 18:10 | 49.39422 | 10.81488 | 28136 ft | 427 kts | 307° |
| 2026-05-04 18:10 | 49.41273 | 10.77903 | 28478 ft | 429 kts | 307° |
| 2026-05-04 18:10 | 49.43113 | 10.74340 | 28809 ft | 430 kts | 307° |
| 2026-05-04 18:11 | 49.44988 | 10.70716 | 29128 ft | 432 kts | 307° |
| 2026-05-04 18:11 | 49.46865 | 10.67086 | 29437 ft | 434 kts | 307° |
| 2026-05-04 18:11 | 49.48750 | 10.63435 | 29759 ft | 436 kts | 307° |
| 2026-05-04 18:11 | 49.50006 | 10.61002 | 29943 ft | 437 kts | 307° |
| 2026-05-04 18:12 | 49.51900 | 10.57329 | 30230 ft | 439 kts | 307° |
| 2026-05-04 18:12 | 49.53803 | 10.53635 | 30504 ft | 440 kts | 307° |
| 2026-05-04 18:12 | 49.55690 | 10.49958 | 30775 ft | 442 kts | 307° |
| 2026-05-04 18:12 | 49.57598 | 10.46232 | 31038 ft | 443 kts | 307° |
| 2026-05-04 18:13 | 49.59513 | 10.42490 | 31285 ft | 445 kts | 307° |
| 2026-05-04 18:13 | 49.61430 | 10.38739 | 31619 ft | 444 kts | 306° |
| 2026-05-04 18:13 | 49.65242 | 10.31271 | 31957 ft | 435 kts | 306° |
| 2026-05-04 18:14 | 49.67087 | 10.27656 | 31960 ft | 423 kts | 306° |
| 2026-05-04 18:14 | 49.70677 | 10.20607 | 31962 ft | 417 kts | 306° |
| 2026-05-04 18:15 | 49.77797 | 10.06528 | 31972 ft | 416 kts | 306° |
| 2026-05-04 18:16 | 49.81359 | 9.99463 | 31972 ft | 416 kts | 306° |
| 2026-05-04 18:16 | 49.84927 | 9.92379 | 31971 ft | 416 kts | 306° |
| 2026-05-04 18:17 | 49.90229 | 9.81785 | 31969 ft | 415 kts | 306° |
| 2026-05-04 18:18 | 49.95542 | 9.71134 | 31966 ft | 415 kts | 306° |
| 2026-05-04 18:18 | 49.99063 | 9.64086 | 31964 ft | 415 kts | 306° |
| 2026-05-04 18:19 | 50.04359 | 9.53384 | 31964 ft | 415 kts | 305° |
| 2026-05-04 18:19 | 50.08190 | 9.46730 | 31961 ft | 418 kts | 318° |
| 2026-05-04 18:20 | 50.12730 | 9.41024 | 31961 ft | 418 kts | 319° |
| 2026-05-04 18:20 | 50.17250 | 9.35323 | 31960 ft | 418 kts | 319° |
| 2026-05-04 18:21 | 50.21762 | 9.29598 | 31963 ft | 418 kts | 319° |
| 2026-05-04 18:21 | 50.26252 | 9.23891 | 31963 ft | 418 kts | 318° |
| 2026-05-04 18:22 | 50.30763 | 9.18142 | 31967 ft | 417 kts | 318° |
| 2026-05-04 18:22 | 50.35231 | 9.12434 | 31960 ft | 417 kts | 318° |
| 2026-05-04 18:23 | 50.39720 | 9.06681 | 31961 ft | 417 kts | 318° |
| 2026-05-04 18:23 | 50.41955 | 9.03819 | 31784 ft | 410 kts | 318° |
| 2026-05-04 18:23 | 50.44147 | 9.01010 | 31586 ft | 404 kts | 318° |
| 2026-05-04 18:24 | 50.46314 | 8.98228 | 31381 ft | 402 kts | 318° |
| 2026-05-04 18:24 | 50.48473 | 8.95442 | 31184 ft | 401 kts | 318° |
| 2026-05-04 18:24 | 50.50628 | 8.92662 | 30965 ft | 400 kts | 318° |
| 2026-05-04 18:24 | 50.52774 | 8.89892 | 30611 ft | 398 kts | 318° |
| 2026-05-04 18:25 | 50.54911 | 8.87207 | 30270 ft | 396 kts | 319° |
| 2026-05-04 18:25 | 50.57096 | 8.84571 | 29917 ft | 394 kts | 320° |
| 2026-05-04 18:25 | 50.59283 | 8.81986 | 29554 ft | 392 kts | 320° |
| 2026-05-04 18:25 | 50.61475 | 8.79413 | 29208 ft | 390 kts | 320° |
| 2026-05-04 18:26 | 50.63644 | 8.76854 | 28981 ft | 388 kts | 320° |
| 2026-05-04 18:26 | 50.65799 | 8.74285 | 28985 ft | 388 kts | 320° |
| 2026-05-04 18:26 | 50.67949 | 8.71701 | 28823 ft | 390 kts | 320° |
| 2026-05-04 18:26 | 50.70098 | 8.69106 | 28448 ft | 387 kts | 320° |
| 2026-05-04 18:27 | 50.72226 | 8.66522 | 28122 ft | 384 kts | 320° |
| 2026-05-04 18:27 | 50.74342 | 8.63948 | 27820 ft | 383 kts | 320° |
| 2026-05-04 18:27 | 50.76423 | 8.61423 | 27523 ft | 381 kts | 320° |
| 2026-05-04 18:27 | 50.78526 | 8.58877 | 27223 ft | 380 kts | 320° |
| 2026-05-04 18:28 | 50.80633 | 8.56331 | 26920 ft | 378 kts | 320° |
| 2026-05-04 18:28 | 50.82717 | 8.53804 | 26626 ft | 377 kts | 320° |
| 2026-05-04 18:28 | 50.84724 | 8.51367 | 26335 ft | 375 kts | 320° |
| 2026-05-04 18:28 | 50.86858 | 8.48768 | 26017 ft | 374 kts | 320° |
| 2026-05-04 18:29 | 50.88906 | 8.46264 | 25718 ft | 372 kts | 320° |
| 2026-05-04 18:29 | 50.90963 | 8.43751 | 25417 ft | 371 kts | 320° |
| 2026-05-04 18:29 | 50.92975 | 8.41292 | 25132 ft | 369 kts | 320° |
| 2026-05-04 18:29 | 50.95003 | 8.38812 | 24974 ft | 368 kts | 320° |
| 2026-05-04 18:30 | 50.99063 | 8.33817 | 24995 ft | 368 kts | 320° |
| 2026-05-04 18:30 | 51.01095 | 8.31325 | 24998 ft | 369 kts | 322° |
| 2026-05-04 18:30 | 51.03290 | 8.29176 | 25000 ft | 371 kts | 329° |
| 2026-05-04 18:31 | 51.05518 | 8.27217 | 24995 ft | 371 kts | 329° |
| 2026-05-04 18:31 | 51.07786 | 8.25187 | 24604 ft | 372 kts | 326° |
| 2026-05-04 18:31 | 51.09779 | 8.22628 | 24085 ft | 367 kts | 309° |
| 2026-05-04 18:31 | 51.11354 | 8.19447 | 23552 ft | 365 kts | 305° |
| 2026-05-04 18:32 | 51.12883 | 8.16227 | 23034 ft | 365 kts | 305° |
| 2026-05-04 18:32 | 51.14416 | 8.12978 | 22499 ft | 365 kts | 305° |
| 2026-05-04 18:32 | 51.15938 | 8.09739 | 21983 ft | 365 kts | 305° |
| 2026-05-04 18:32 | 51.17439 | 8.06535 | 21451 ft | 365 kts | 305° |
| 2026-05-04 18:33 | 51.18976 | 8.03254 | 20933 ft | 365 kts | 305° |
| 2026-05-04 18:33 | 51.20496 | 8.00003 | 20379 ft | 365 kts | 305° |
| 2026-05-04 18:33 | 51.21997 | 7.96791 | 19886 ft | 365 kts | 305° |
| 2026-05-04 18:33 | 51.23515 | 7.93537 | 19348 ft | 365 kts | 305° |
| 2026-05-04 18:34 | 51.25036 | 7.90270 | 18815 ft | 365 kts | 305° |
| 2026-05-04 18:34 | 51.26545 | 7.87021 | 18283 ft | 365 kts | 305° |
| 2026-05-04 18:34 | 51.28061 | 7.83753 | 17760 ft | 365 kts | 305° |
| 2026-05-04 18:34 | 51.29576 | 7.80490 | 17226 ft | 365 kts | 305° |
| 2026-05-04 18:35 | 51.31087 | 7.77232 | 16704 ft | 365 kts | 305° |
| 2026-05-04 18:35 | 51.32591 | 7.73982 | 16169 ft | 364 kts | 304° |
| 2026-05-04 18:35 | 51.33761 | 7.70467 | 15655 ft | 361 kts | 285° |
| 2026-05-04 18:35 | 51.34082 | 7.66525 | 15132 ft | 357 kts | 266° |
| 2026-05-04 18:36 | 51.33897 | 7.62563 | 14606 ft | 356 kts | 264° |
| 2026-05-04 18:36 | 51.33671 | 7.58661 | 14066 ft | 348 kts | 264° |
| 2026-05-04 18:36 | 51.33447 | 7.54883 | 13544 ft | 334 kts | 263° |
| 2026-05-04 18:36 | 51.33230 | 7.51241 | 13011 ft | 323 kts | 264° |
| 2026-05-04 18:37 | 51.33018 | 7.47717 | 12494 ft | 313 kts | 264° |
| 2026-05-04 18:37 | 51.32811 | 7.44288 | 11966 ft | 308 kts | 263° |
| 2026-05-04 18:37 | 51.32601 | 7.40854 | 11443 ft | 310 kts | 263° |
| 2026-05-04 18:37 | 51.32394 | 7.37460 | 10913 ft | 302 kts | 263° |
| 2026-05-04 18:38 | 51.32189 | 7.34153 | 10385 ft | 294 kts | 263° |
| 2026-05-04 18:38 | 51.31993 | 7.30981 | 9869 ft | 287 kts | 263° |
| 2026-05-04 18:38 | 51.31797 | 7.27817 | 9417 ft | 279 kts | 264° |
| 2026-05-04 18:38 | 51.31610 | 7.24811 | 8976 ft | 271 kts | 263° |
| 2026-05-04 18:39 | 51.31425 | 7.21844 | 8518 ft | 264 kts | 263° |
| 2026-05-04 18:39 | 51.31365 | 7.18967 | 8069 ft | 257 kts | 279° |
| 2026-05-04 18:39 | 51.32065 | 7.16395 | 7615 ft | 252 kts | 309° |
| 2026-05-04 18:39 | 51.33459 | 7.14767 | 7148 ft | 248 kts | 340° |
| 2026-05-04 18:40 | 51.35147 | 7.14511 | 6708 ft | 246 kts | 12° |
| 2026-05-04 18:40 | 51.36672 | 7.15680 | 6255 ft | 244 kts | 43° |
| 2026-05-04 18:40 | 51.37792 | 7.17682 | 5819 ft | 245 kts | 52° |
| 2026-05-04 18:40 | 51.38880 | 7.19810 | 5359 ft | 249 kts | 42° |
| 2026-05-04 18:41 | 51.40384 | 7.21111 | 4914 ft | 249 kts | 11° |
| 2026-05-04 18:41 | 51.42106 | 7.21007 | 4458 ft | 249 kts | 340° |
| 2026-05-04 18:41 | 51.43611 | 7.19646 | 3993 ft | 249 kts | 316° |
| 2026-05-04 18:41 | 51.44543 | 7.17352 | 3551 ft | 248 kts | 285° |
| 2026-05-04 18:42 | 51.44684 | 7.14610 | 3114 ft | 247 kts | 266° |
| 2026-05-04 18:42 | 51.44539 | 7.11920 | 3000 ft | 235 kts | 264° |
| 2026-05-04 18:42 | 51.44343 | 7.09398 | 3009 ft | 228 kts | 256° |
| 2026-05-04 18:42 | 51.43654 | 7.07134 | 3013 ft | 227 kts | 233° |
| 2026-05-04 18:43 | 51.42699 | 7.05118 | 3011 ft | 227 kts | 233° |
| 2026-05-04 18:43 | 51.41741 | 7.03097 | 3009 ft | 222 kts | 233° |
| 2026-05-04 18:43 | 51.40841 | 7.01189 | 3013 ft | 208 kts | 233° |
| 2026-05-04 18:43 | 51.40007 | 6.99419 | 3030 ft | 189 kts | 233° |
| 2026-05-04 18:44 | 51.39234 | 6.97782 | 3013 ft | 180 kts | 233° |
| 2026-05-04 18:44 | 51.38988 | 6.97261 | 2999 ft | 179 kts | 233° |
| 2026-05-04 18:44 | 51.37750 | 6.94641 | 2724 ft | 176 kts | 233° |
| 2026-05-04 18:44 | 51.37013 | 6.93082 | 2500 ft | 175 kts | 232° |
| 2026-05-04 18:45 | 51.36278 | 6.91529 | 2274 ft | 175 kts | 232° |
| 2026-05-04 18:45 | 51.35533 | 6.89957 | 2041 ft | 177 kts | 232° |
| 2026-05-04 18:45 | 51.34821 | 6.88451 | 1825 ft | 166 kts | 232° |
| 2026-05-04 18:45 | 51.34143 | 6.87020 | 1619 ft | 154 kts | 232° |
| 2026-05-04 18:46 | 51.33522 | 6.85711 | 1406 ft | 142 kts | 231° |
| 2026-05-04 18:46 | 51.32928 | 6.84462 | 1216 ft | 141 kts | 231° |
| 2026-05-04 18:46 | 51.32330 | 6.83201 | 1032 ft | 145 kts | 232° |
| 2026-05-04 18:46 | 51.31716 | 6.81890 | 837 ft | 145 kts | 232° |
| 2026-05-04 18:47 | 51.31126 | 6.80634 | 623 ft | 141 kts | 232° |
| 2026-05-04 18:47 | 51.30530 | 6.79388 | 427 ft | 139 kts | 231° |
| 2026-05-04 18:47 | 51.29936 | 6.78165 | 224 ft | 142 kts | 231° |
| 2026-05-04 18:47 | 51.29350 | 6.76932 | 132 ft | 127 kts | 233° |
| 2026-05-04 18:48 | 51.28984 | 6.76162 | 127 ft | 43 kts | 232° |
| 2026-05-04 18:48 | 51.28825 | 6.75838 | 128 ft | 36 kts | 228° |
| 2026-05-04 18:48 | 51.28627 | 6.75679 | 124 ft | 28 kts | 190° |
| 2026-05-04 18:48 | 51.28492 | 6.75742 | 121 ft | 12 kts | 144° |
| 2026-05-04 18:49 | 51.28428 | 6.75817 | 131 ft | 10 kts | 143° |
| 2026-05-04 18:49 | 51.28398 | 6.75853 | 122 ft | 0 kts | 143° |
| 2026-05-04 18:49 | 51.28393 | 6.75858 | 121 ft | 3 kts | 143° |
| 2026-05-04 18:49 | 51.28359 | 6.75898 | 126 ft | 9 kts | 143° |
| 2026-05-04 18:50 | 51.28294 | 6.75977 | 129 ft | 15 kts | 143° |
| 2026-05-04 18:50 | 51.28229 | 6.76047 | 128 ft | 0 kts | 147° |
| 2026-05-04 18:51 | 51.28228 | 6.76048 | 125 ft | 1 kts | 147° |
| 2026-05-04 18:51 | 51.28211 | 6.76066 | 128 ft | 3 kts | 147° |
| 2026-05-04 18:51 | 51.28189 | 6.76096 | 126 ft | 6 kts | 128° |
| 2026-05-04 18:52 | 51.28204 | 6.76176 | 129 ft | 11 kts | 55° |
| 2026-05-04 18:52 | 51.28255 | 6.76286 | 128 ft | 12 kts | 53° |
| 2026-05-04 18:52 | 51.28307 | 6.76393 | 133 ft | 12 kts | 52° |
| 2026-05-04 18:52 | 51.28356 | 6.76495 | 123 ft | 11 kts | 52° |
| 2026-05-04 18:53 | 51.28409 | 6.76608 | 125 ft | 15 kts | 59° |
| 2026-05-04 18:53 | 51.28357 | 6.76745 | 122 ft | 17 kts | 141° |
| 2026-05-04 18:53 | 51.28262 | 6.76846 | 126 ft | 17 kts | 163° |
| 2026-05-04 18:53 | 51.28145 | 6.76829 | 127 ft | 14 kts | 188° |
| 2026-05-04 18:54 | 51.28061 | 6.76787 | 130 ft | 7 kts | 215° |
| 2026-05-04 18:54 | 51.28058 | 6.76725 | 126 ft | 3 kts | 275° |
| 2026-05-04 18:54 | 51.28059 | 6.76710 | 126 ft | 1 kts | 275° |
| 2026-05-04 18:54 | 51.28059 | 6.76708 | 124 ft | 0 kts | 275° |